sensor_id;sensor_type;location;lat;lon;timestamp;P1;durP1;ratioP1;P2;durP2;ratioP2
21517;SDS011;61765;45.794;24.150;2024-01-27T00:03:05;36.15;;;20.55;;
21517;SDS011;61765;45.794;24.150;2024-01-27T00:11:13;45.10;;;23.25;;
21517;SDS011;61765;45.794;24.150;2024-01-27T00:19:19;47.58;;;24.30;;
21517;SDS011;61765;45.794;24.150;2024-01-27T00:27:28;42.70;;;23.35;;
21517;SDS011;61765;45.794;24.150;2024-01-27T00:35:34;45.15;;;22.77;;
21517;SDS011;61765;45.794;24.150;2024-01-27T00:43:43;40.17;;;22.20;;
21517;SDS011;61765;45.794;24.150;2024-01-27T00:51:50;40.88;;;20.90;;
21517;SDS011;61765;45.794;24.150;2024-01-27T00:59:58;35.80;;;20.48;;
21517;SDS011;61765;45.794;24.150;2024-01-27T01:08:04;40.53;;;21.77;;
21517;SDS011;61765;45.794;24.150;2024-01-27T01:16:13;38.00;;;20.48;;
21517;SDS011;61765;45.794;24.150;2024-01-27T01:24:19;37.35;;;19.20;;
21517;SDS011;61765;45.794;24.150;2024-01-27T01:32:27;33.38;;;18.73;;
21517;SDS011;61765;45.794;24.150;2024-01-27T01:40:33;22.83;;;12.80;;
21517;SDS011;61765;45.794;24.150;2024-01-27T01:48:41;27.23;;;13.70;;
21517;SDS011;61765;45.794;24.150;2024-01-27T01:56:47;22.13;;;12.15;;
21517;SDS011;61765;45.794;24.150;2024-01-27T02:04:56;30.35;;;16.77;;
21517;SDS011;61765;45.794;24.150;2024-01-27T02:13:02;29.77;;;14.90;;
21517;SDS011;61765;45.794;24.150;2024-01-27T02:21:11;36.97;;;16.40;;
21517;SDS011;61765;45.794;24.150;2024-01-27T02:29:21;24.15;;;13.77;;
21517;SDS011;61765;45.794;24.150;2024-01-27T02:37:29;23.92;;;12.57;;
21517;SDS011;61765;45.794;24.150;2024-01-27T02:45:37;20.70;;;12.02;;
21517;SDS011;61765;45.794;24.150;2024-01-27T02:53:43;25.20;;;14.63;;
21517;SDS011;61765;45.794;24.150;2024-01-27T03:01:51;27.65;;;14.30;;
21517;SDS011;61765;45.794;24.150;2024-01-27T03:09:57;20.33;;;10.85;;
21517;SDS011;61765;45.794;24.150;2024-01-27T03:18:05;17.92;;;10.48;;
21517;SDS011;61765;45.794;24.150;2024-01-27T03:26:11;24.23;;;12.15;;
21517;SDS011;61765;45.794;24.150;2024-01-27T03:34:19;23.33;;;11.98;;
21517;SDS011;61765;45.794;24.150;2024-01-27T03:42:27;20.88;;;10.88;;
21517;SDS011;61765;45.794;24.150;2024-01-27T03:50:35;19.83;;;10.90;;
21517;SDS011;61765;45.794;24.150;2024-01-27T03:58:41;20.90;;;11.05;;
21517;SDS011;61765;45.794;24.150;2024-01-27T04:06:49;19.27;;;10.15;;
21517;SDS011;61765;45.794;24.150;2024-01-27T04:14:56;17.27;;;9.00;;
21517;SDS011;61765;45.794;24.150;2024-01-27T04:23:05;14.85;;;8.32;;
21517;SDS011;61765;45.794;24.150;2024-01-27T04:31:11;14.25;;;8.05;;
21517;SDS011;61765;45.794;24.150;2024-01-27T04:39:19;13.02;;;7.68;;
21517;SDS011;61765;45.794;24.150;2024-01-27T04:47:25;13.70;;;8.05;;
21517;SDS011;61765;45.794;24.150;2024-01-27T04:55:34;14.40;;;8.55;;
21517;SDS011;61765;45.794;24.150;2024-01-27T05:03:42;11.23;;;6.15;;
21517;SDS011;61765;45.794;24.150;2024-01-27T05:11:50;12.45;;;7.18;;
21517;SDS011;61765;45.794;24.150;2024-01-27T05:19:57;11.90;;;6.93;;
21517;SDS011;61765;45.794;24.150;2024-01-27T05:28:08;13.02;;;6.63;;
21517;SDS011;61765;45.794;24.150;2024-01-27T05:36:14;16.20;;;8.57;;
21517;SDS011;61765;45.794;24.150;2024-01-27T05:44:22;20.13;;;10.80;;
21517;SDS011;61765;45.794;24.150;2024-01-27T05:52:28;21.40;;;10.35;;
21517;SDS011;61765;45.794;24.150;2024-01-27T06:00:36;21.95;;;11.15;;
21517;SDS011;61765;45.794;24.150;2024-01-27T06:08:42;16.13;;;10.00;;
21517;SDS011;61765;45.794;24.150;2024-01-27T06:16:50;19.27;;;11.32;;
21517;SDS011;61765;45.794;24.150;2024-01-27T06:24:55;19.15;;;10.48;;
21517;SDS011;61765;45.794;24.150;2024-01-27T06:33:04;18.25;;;11.07;;
21517;SDS011;61765;45.794;24.150;2024-01-27T06:41:10;17.27;;;10.50;;
21517;SDS011;61765;45.794;24.150;2024-01-27T06:49:18;21.02;;;10.60;;
21517;SDS011;61765;45.794;24.150;2024-01-27T06:57:24;19.75;;;10.82;;
21517;SDS011;61765;45.794;24.150;2024-01-27T07:05:33;19.77;;;11.93;;
21517;SDS011;61765;45.794;24.150;2024-01-27T07:13:43;22.05;;;12.82;;
21517;SDS011;61765;45.794;24.150;2024-01-27T07:21:51;18.15;;;10.93;;
21517;SDS011;61765;45.794;24.150;2024-01-27T07:29:56;14.07;;;7.72;;
21517;SDS011;61765;45.794;24.150;2024-01-27T07:38:05;6.53;;;4.00;;
21517;SDS011;61765;45.794;24.150;2024-01-27T07:46:11;6.90;;;3.28;;
21517;SDS011;61765;45.794;24.150;2024-01-27T07:54:20;4.07;;;2.20;;
21517;SDS011;61765;45.794;24.150;2024-01-27T08:02:26;8.27;;;4.65;;
21517;SDS011;61765;45.794;24.150;2024-01-27T08:10:34;79.53;;;7.50;;
21517;SDS011;61765;45.794;24.150;2024-01-27T08:18:42;34.03;;;5.10;;
21517;SDS011;61765;45.794;24.150;2024-01-27T08:26:52;48.20;;;6.50;;
21517;SDS011;61765;45.794;24.150;2024-01-27T08:34:57;82.82;;;10.52;;
21517;SDS011;61765;45.794;24.150;2024-01-27T08:43:06;80.75;;;9.77;;
21517;SDS011;61765;45.794;24.150;2024-01-27T08:51:12;4.63;;;3.20;;
21517;SDS011;61765;45.794;24.150;2024-01-27T08:59:21;84.60;;;9.45;;
21517;SDS011;61765;45.794;24.150;2024-01-27T09:07:27;17.52;;;4.93;;
21517;SDS011;61765;45.794;24.150;2024-01-27T09:15:36;32.67;;;6.93;;
21517;SDS011;61765;45.794;24.150;2024-01-27T09:23:42;7.70;;;2.95;;
21517;SDS011;61765;45.794;24.150;2024-01-27T09:31:51;5.00;;;2.95;;
21517;SDS011;61765;45.794;24.150;2024-01-27T09:39:56;6.97;;;4.07;;
21517;SDS011;61765;45.794;24.150;2024-01-27T09:48:05;6.25;;;4.15;;
21517;SDS011;61765;45.794;24.150;2024-01-27T09:56:15;6.45;;;3.58;;
21517;SDS011;61765;45.794;24.150;2024-01-27T10:04:25;8.75;;;3.22;;
21517;SDS011;61765;45.794;24.150;2024-01-27T10:12:31;6.53;;;3.25;;
21517;SDS011;61765;45.794;24.150;2024-01-27T10:20:43;8.43;;;3.60;;
21517;SDS011;61765;45.794;24.150;2024-01-27T10:28:53;8.48;;;4.25;;
21517;SDS011;61765;45.794;24.150;2024-01-27T10:37:01;7.68;;;3.90;;
21517;SDS011;61765;45.794;24.150;2024-01-27T10:45:08;8.43;;;3.58;;
21517;SDS011;61765;45.794;24.150;2024-01-27T10:53:21;11.13;;;4.55;;
21517;SDS011;61765;45.794;24.150;2024-01-27T11:01:32;4.00;;;2.92;;
21517;SDS011;61765;45.794;24.150;2024-01-27T11:09:44;6.22;;;3.05;;
21517;SDS011;61765;45.794;24.150;2024-01-27T11:17:50;6.32;;;2.95;;
21517;SDS011;61765;45.794;24.150;2024-01-27T11:26:04;5.15;;;2.75;;
21517;SDS011;61765;45.794;24.150;2024-01-27T11:34:10;6.22;;;2.92;;
21517;SDS011;61765;45.794;24.150;2024-01-27T11:42:21;5.70;;;2.95;;
21517;SDS011;61765;45.794;24.150;2024-01-27T11:50:27;9.20;;;3.80;;
21517;SDS011;61765;45.794;24.150;2024-01-27T11:58:35;7.93;;;3.45;;
21517;SDS011;61765;45.794;24.150;2024-01-27T12:06:41;9.30;;;3.92;;
21517;SDS011;61765;45.794;24.150;2024-01-27T12:14:51;10.32;;;3.22;;
21517;SDS011;61765;45.794;24.150;2024-01-27T12:23:02;6.70;;;3.47;;
21517;SDS011;61765;45.794;24.150;2024-01-27T12:31:10;8.10;;;3.20;;
21517;SDS011;61765;45.794;24.150;2024-01-27T12:39:16;6.88;;;2.40;;
21517;SDS011;61765;45.794;24.150;2024-01-27T12:47:24;10.70;;;3.65;;
21517;SDS011;61765;45.794;24.150;2024-01-27T12:55:30;2.85;;;1.33;;
21517;SDS011;61765;45.794;24.150;2024-01-27T13:03:38;5.82;;;1.80;;
21517;SDS011;61765;45.794;24.150;2024-01-27T13:11:46;2.58;;;1.70;;
21517;SDS011;61765;45.794;24.150;2024-01-27T13:19:55;5.90;;;1.80;;
21517;SDS011;61765;45.794;24.150;2024-01-27T13:28:01;4.78;;;2.05;;
21517;SDS011;61765;45.794;24.150;2024-01-27T13:36:11;4.63;;;1.70;;
21517;SDS011;61765;45.794;24.150;2024-01-27T13:44:23;4.47;;;1.83;;
21517;SDS011;61765;45.794;24.150;2024-01-27T13:52:31;10.18;;;2.00;;
21517;SDS011;61765;45.794;24.150;2024-01-27T14:00:36;4.40;;;2.05;;
21517;SDS011;61765;45.794;24.150;2024-01-27T14:08:45;4.30;;;1.50;;
21517;SDS011;61765;45.794;24.150;2024-01-27T14:16:51;3.88;;;1.50;;
21517;SDS011;61765;45.794;24.150;2024-01-27T14:24:59;6.03;;;2.70;;
21517;SDS011;61765;45.794;24.150;2024-01-27T14:33:05;5.18;;;1.67;;
21517;SDS011;61765;45.794;24.150;2024-01-27T14:41:13;4.10;;;1.60;;
21517;SDS011;61765;45.794;24.150;2024-01-27T14:49:19;6.15;;;1.85;;
21517;SDS011;61765;45.794;24.150;2024-01-27T14:57:27;5.28;;;2.40;;
21517;SDS011;61765;45.794;24.150;2024-01-27T15:05:33;7.35;;;2.70;;
21517;SDS011;61765;45.794;24.150;2024-01-27T15:13:45;11.00;;;4.32;;
21517;SDS011;61765;45.794;24.150;2024-01-27T15:21:51;9.88;;;3.33;;
21517;SDS011;61765;45.794;24.150;2024-01-27T15:30:00;12.85;;;5.53;;
21517;SDS011;61765;45.794;24.150;2024-01-27T15:38:06;6.22;;;3.38;;
21517;SDS011;61765;45.794;24.150;2024-01-27T15:46:16;9.52;;;3.47;;
21517;SDS011;61765;45.794;24.150;2024-01-27T15:54:21;7.90;;;3.58;;
21517;SDS011;61765;45.794;24.150;2024-01-27T16:02:31;6.72;;;3.38;;
21517;SDS011;61765;45.794;24.150;2024-01-27T16:10:37;7.90;;;2.95;;
21517;SDS011;61765;45.794;24.150;2024-01-27T16:18:45;5.85;;;3.03;;
21517;SDS011;61765;45.794;24.150;2024-01-27T16:26:51;8.60;;;3.47;;
21517;SDS011;61765;45.794;24.150;2024-01-27T16:35:00;7.47;;;3.53;;
21517;SDS011;61765;45.794;24.150;2024-01-27T16:43:05;9.48;;;5.15;;
21517;SDS011;61765;45.794;24.150;2024-01-27T16:51:15;20.58;;;8.50;;
21517;SDS011;61765;45.794;24.150;2024-01-27T16:59:20;12.52;;;5.57;;
21517;SDS011;61765;45.794;24.150;2024-01-27T17:07:29;9.30;;;4.88;;
21517;SDS011;61765;45.794;24.150;2024-01-27T17:15:35;23.40;;;10.00;;
21517;SDS011;61765;45.794;24.150;2024-01-27T17:23:44;20.90;;;8.70;;
21517;SDS011;61765;45.794;24.150;2024-01-27T17:31:50;19.92;;;8.88;;
21517;SDS011;61765;45.794;24.150;2024-01-27T17:39:58;22.02;;;10.07;;
21517;SDS011;61765;45.794;24.150;2024-01-27T17:48:07;17.25;;;8.60;;
21517;SDS011;61765;45.794;24.150;2024-01-27T17:56:22;22.85;;;11.48;;
21517;SDS011;61765;45.794;24.150;2024-01-27T18:04:28;15.75;;;9.00;;
21517;SDS011;61765;45.794;24.150;2024-01-27T18:12:37;20.20;;;9.52;;
21517;SDS011;61765;45.794;24.150;2024-01-27T18:20:44;32.60;;;13.32;;
21517;SDS011;61765;45.794;24.150;2024-01-27T18:28:52;46.15;;;20.25;;
21517;SDS011;61765;45.794;24.150;2024-01-27T18:36:58;76.32;;;30.25;;
21517;SDS011;61765;45.794;24.150;2024-01-27T18:45:07;27.23;;;14.13;;
21517;SDS011;61765;45.794;24.150;2024-01-27T18:53:13;18.30;;;9.98;;
21517;SDS011;61765;45.794;24.150;2024-01-27T19:01:21;14.85;;;8.90;;
21517;SDS011;61765;45.794;24.150;2024-01-27T19:09:27;14.75;;;7.40;;
21517;SDS011;61765;45.794;24.150;2024-01-27T19:17:35;15.98;;;7.85;;
21517;SDS011;61765;45.794;24.150;2024-01-27T19:25:41;11.23;;;6.20;;
21517;SDS011;61765;45.794;24.150;2024-01-27T19:33:49;8.68;;;4.95;;
21517;SDS011;61765;45.794;24.150;2024-01-27T19:41:55;9.15;;;5.53;;
21517;SDS011;61765;45.794;24.150;2024-01-27T19:58:23;10.52;;;6.13;;
21517;SDS011;61765;45.794;24.150;2024-01-27T20:06:31;12.27;;;6.20;;
21517;SDS011;61765;45.794;24.150;2024-01-27T20:14:37;14.38;;;6.25;;
21517;SDS011;61765;45.794;24.150;2024-01-27T20:22:45;12.18;;;5.78;;
21517;SDS011;61765;45.794;24.150;2024-01-27T20:30:51;12.30;;;5.85;;
21517;SDS011;61765;45.794;24.150;2024-01-27T20:39:00;12.13;;;6.35;;
21517;SDS011;61765;45.794;24.150;2024-01-27T20:47:08;9.98;;;5.93;;
21517;SDS011;61765;45.794;24.150;2024-01-27T20:55:16;11.20;;;6.03;;
21517;SDS011;61765;45.794;24.150;2024-01-27T21:03:22;10.90;;;5.80;;
21517;SDS011;61765;45.794;24.150;2024-01-27T21:11:30;9.88;;;4.97;;
21517;SDS011;61765;45.794;24.150;2024-01-27T21:19:36;9.23;;;5.20;;
21517;SDS011;61765;45.794;24.150;2024-01-27T21:27:47;11.63;;;5.78;;
21517;SDS011;61765;45.794;24.150;2024-01-27T21:35:52;11.23;;;5.35;;
21517;SDS011;61765;45.794;24.150;2024-01-27T21:44:01;11.27;;;4.88;;
21517;SDS011;61765;45.794;24.150;2024-01-27T21:52:07;8.93;;;4.97;;
21517;SDS011;61765;45.794;24.150;2024-01-27T22:00:16;9.20;;;4.13;;
21517;SDS011;61765;45.794;24.150;2024-01-27T22:08:22;6.72;;;3.63;;
21517;SDS011;61765;45.794;24.150;2024-01-27T22:16:30;6.05;;;3.42;;
21517;SDS011;61765;45.794;24.150;2024-01-27T22:24:35;6.80;;;3.60;;
21517;SDS011;61765;45.794;24.150;2024-01-27T22:32:44;7.13;;;3.13;;
21517;SDS011;61765;45.794;24.150;2024-01-27T22:40:49;9.00;;;4.35;;
21517;SDS011;61765;45.794;24.150;2024-01-27T22:48:58;5.97;;;3.35;;
21517;SDS011;61765;45.794;24.150;2024-01-27T22:57:04;7.18;;;3.00;;
21517;SDS011;61765;45.794;24.150;2024-01-27T23:05:12;5.82;;;3.70;;
21517;SDS011;61765;45.794;24.150;2024-01-27T23:21:34;6.77;;;3.20;;
21517;SDS011;61765;45.794;24.150;2024-01-27T23:29:39;5.70;;;3.05;;
21517;SDS011;61765;45.794;24.150;2024-01-27T23:37:48;4.88;;;2.70;;
21517;SDS011;61765;45.794;24.150;2024-01-27T23:45:53;4.15;;;2.42;;
21517;SDS011;61765;45.794;24.150;2024-01-27T23:54:02;6.28;;;2.88;;
